sensor_id;sensor_type;location;lat;lon;timestamp;pressure;altitude;pressure_sealevel;temperature;humidity
49063;BME280;34876;51.464;-0.150;2023-04-21T00:00:13;101637.88;;;16.21;42.09
49063;BME280;34876;51.464;-0.150;2023-04-21T00:03:31;101627.22;;;16.86;40.58
49063;BME280;34876;51.464;-0.150;2023-04-21T00:05:59;101633.68;;;15.85;43.22
49063;BME280;34876;51.464;-0.150;2023-04-21T00:08:28;101623.48;;;16.02;42.49
49063;BME280;34876;51.464;-0.150;2023-04-21T00:10:57;101622.24;;;16.69;40.92
49063;BME280;34876;51.464;-0.150;2023-04-21T00:13:27;101621.78;;;16.41;42.51
49063;BME280;34876;51.464;-0.150;2023-04-21T00:15:57;101624.01;;;15.64;44.19
49063;BME280;34876;51.464;-0.150;2023-04-21T00:18:27;101628.30;;;14.83;45.46
49063;BME280;34876;51.464;-0.150;2023-04-21T00:20:56;101625.49;;;15.72;43.56
49063;BME280;34876;51.464;-0.150;2023-04-21T00:23:24;101625.67;;;14.81;45.67
49063;BME280;34876;51.464;-0.150;2023-04-21T00:25:54;101616.75;;;16.31;41.98
49063;BME280;34876;51.464;-0.150;2023-04-21T00:28:23;101619.76;;;16.82;40.71
49063;BME280;34876;51.464;-0.150;2023-04-21T00:30:52;101624.21;;;15.66;44.63
49063;BME280;34876;51.464;-0.150;2023-04-21T00:33:22;101619.17;;;16.35;41.80
49063;BME280;34876;51.464;-0.150;2023-04-21T00:35:52;101613.96;;;16.58;41.29
49063;BME280;34876;51.464;-0.150;2023-04-21T00:38:21;101621.48;;;15.30;44.64
49063;BME280;34876;51.464;-0.150;2023-04-21T00:40:50;101618.00;;;15.16;45.60
49063;BME280;34876;51.464;-0.150;2023-04-21T00:43:20;101618.51;;;14.42;47.21
49063;BME280;34876;51.464;-0.150;2023-04-21T00:45:50;101617.64;;;14.33;48.00
49063;BME280;34876;51.464;-0.150;2023-04-21T00:48:20;101605.90;;;14.61;46.70
49063;BME280;34876;51.464;-0.150;2023-04-21T00:50:49;101599.52;;;15.87;43.08
49063;BME280;34876;51.464;-0.150;2023-04-21T00:53:19;101603.34;;;15.16;44.98
49063;BME280;34876;51.464;-0.150;2023-04-21T00:55:49;101604.55;;;13.64;48.97
49063;BME280;34876;51.464;-0.150;2023-04-21T00:58:20;101594.26;;;15.33;44.78
49063;BME280;34876;51.464;-0.150;2023-04-21T01:00:49;101594.31;;;14.63;47.06
49063;BME280;34876;51.464;-0.150;2023-04-21T01:03:18;101583.96;;;15.77;43.49
49063;BME280;34876;51.464;-0.150;2023-04-21T01:05:47;101578.28;;;15.87;43.19
49063;BME280;34876;51.464;-0.150;2023-04-21T01:08:16;101585.37;;;14.65;47.06
49063;BME280;34876;51.464;-0.150;2023-04-21T01:10:45;101577.87;;;14.21;47.73
49063;BME280;34876;51.464;-0.150;2023-04-21T01:13:18;101567.77;;;16.02;42.95
49063;BME280;34876;51.464;-0.150;2023-04-21T01:15:47;101569.89;;;15.30;45.37
49063;BME280;34876;51.464;-0.150;2023-04-21T01:18:17;101571.13;;;14.75;46.12
49063;BME280;34876;51.464;-0.150;2023-04-21T01:20:46;101559.50;;;15.83;43.35
49063;BME280;34876;51.464;-0.150;2023-04-21T01:23:17;101553.25;;;17.01;40.55
49063;BME280;34876;51.464;-0.150;2023-04-21T01:25:46;101547.37;;;16.49;42.41
49063;BME280;34876;51.464;-0.150;2023-04-21T01:28:20;101552.51;;;16.92;40.64
49063;BME280;34876;51.464;-0.150;2023-04-21T01:30:50;101552.37;;;16.48;42.49
49063;BME280;34876;51.464;-0.150;2023-04-21T01:33:20;101549.93;;;16.60;41.72
49063;BME280;34876;51.464;-0.150;2023-04-21T01:35:55;101547.05;;;16.81;40.86
49063;BME280;34876;51.464;-0.150;2023-04-21T01:38:24;101547.40;;;15.60;43.68
49063;BME280;34876;51.464;-0.150;2023-04-21T01:40:54;101542.33;;;16.87;41.00
49063;BME280;34876;51.464;-0.150;2023-04-21T01:43:24;101531.78;;;16.99;40.53
49063;BME280;34876;51.464;-0.150;2023-04-21T01:45:54;101536.18;;;15.78;44.39
49063;BME280;34876;51.464;-0.150;2023-04-21T01:48:22;101528.30;;;16.25;42.28
49063;BME280;34876;51.464;-0.150;2023-04-21T01:50:53;101519.79;;;16.60;41.43
49063;BME280;34876;51.464;-0.150;2023-04-21T01:53:22;101527.82;;;16.88;40.79
49063;BME280;34876;51.464;-0.150;2023-04-21T01:55:51;101527.86;;;17.09;40.30
49063;BME280;34876;51.464;-0.150;2023-04-21T01:58:21;101522.53;;;16.96;40.62
49063;BME280;34876;51.464;-0.150;2023-04-21T02:00:49;101526.24;;;16.99;40.53
49063;BME280;34876;51.464;-0.150;2023-04-21T02:03:18;101525.23;;;16.90;41.12
49063;BME280;34876;51.464;-0.150;2023-04-21T02:05:46;101519.37;;;17.13;40.18
49063;BME280;34876;51.464;-0.150;2023-04-21T02:08:18;101519.92;;;16.78;41.32
49063;BME280;34876;51.464;-0.150;2023-04-21T02:10:47;101514.85;;;16.56;41.52
49063;BME280;34876;51.464;-0.150;2023-04-21T02:13:16;101517.03;;;16.32;42.97
49063;BME280;34876;51.464;-0.150;2023-04-21T02:15:45;101512.09;;;16.95;40.69
49063;BME280;34876;51.464;-0.150;2023-04-21T02:18:15;101508.32;;;16.85;40.90
49063;BME280;34876;51.464;-0.150;2023-04-21T02:20:44;101505.61;;;17.09;40.31
49063;BME280;34876;51.464;-0.150;2023-04-21T02:23:13;101507.41;;;16.82;41.80
49063;BME280;34876;51.464;-0.150;2023-04-21T02:25:42;101505.48;;;16.79;41.00
49063;BME280;34876;51.464;-0.150;2023-04-21T02:28:11;101495.34;;;16.76;41.07
49063;BME280;34876;51.464;-0.150;2023-04-21T02:30:40;101488.79;;;16.57;41.54
49063;BME280;34876;51.464;-0.150;2023-04-21T02:33:09;101489.71;;;16.62;41.58
49063;BME280;34876;51.464;-0.150;2023-04-21T02:35:38;101484.32;;;16.60;41.54
49063;BME280;34876;51.464;-0.150;2023-04-21T02:38:08;101479.18;;;17.45;39.60
49063;BME280;34876;51.464;-0.150;2023-04-21T02:40:37;101472.70;;;17.33;39.84
49063;BME280;34876;51.464;-0.150;2023-04-21T02:43:06;101469.39;;;17.53;39.38
49063;BME280;34876;51.464;-0.150;2023-04-21T02:45:36;101465.54;;;16.96;40.66
49063;BME280;34876;51.464;-0.150;2023-04-21T02:48:05;101461.93;;;17.22;40.11
49063;BME280;34876;51.464;-0.150;2023-04-21T02:50:34;101461.21;;;17.03;40.57
49063;BME280;34876;51.464;-0.150;2023-04-21T02:53:03;101456.01;;;16.99;40.60
49063;BME280;34876;51.464;-0.150;2023-04-21T02:55:32;101451.50;;;16.94;40.78
49063;BME280;34876;51.464;-0.150;2023-04-21T02:58:01;101450.95;;;17.34;39.88
49063;BME280;34876;51.464;-0.150;2023-04-21T03:00:29;101462.13;;;16.70;41.82
49063;BME280;34876;51.464;-0.150;2023-04-21T03:02:59;101458.76;;;16.10;42.84
49063;BME280;34876;51.464;-0.150;2023-04-21T03:05:27;101455.11;;;16.83;41.05
49063;BME280;34876;51.464;-0.150;2023-04-21T03:07:56;101451.66;;;16.85;41.34
49063;BME280;34876;51.464;-0.150;2023-04-21T03:10:25;101457.32;;;16.68;41.41
49063;BME280;34876;51.464;-0.150;2023-04-21T03:12:55;101449.27;;;17.01;40.60
49063;BME280;34876;51.464;-0.150;2023-04-21T03:15:24;101446.79;;;17.35;39.78
49063;BME280;34876;51.464;-0.150;2023-04-21T03:17:53;101451.57;;;16.50;41.78
49063;BME280;34876;51.464;-0.150;2023-04-21T03:20:23;101450.08;;;16.53;41.60
49063;BME280;34876;51.464;-0.150;2023-04-21T03:22:53;101438.79;;;16.68;41.45
49063;BME280;34876;51.464;-0.150;2023-04-21T03:25:23;101430.37;;;16.77;41.21
49063;BME280;34876;51.464;-0.150;2023-04-21T03:27:52;101435.75;;;16.66;41.77
49063;BME280;34876;51.464;-0.150;2023-04-21T03:30:22;101433.37;;;16.53;41.67
49063;BME280;34876;51.464;-0.150;2023-04-21T03:32:52;101431.91;;;16.35;42.61
49063;BME280;34876;51.464;-0.150;2023-04-21T03:35:21;101421.84;;;16.85;41.30
49063;BME280;34876;51.464;-0.150;2023-04-21T03:37:50;101422.16;;;17.03;40.55
49063;BME280;34876;51.464;-0.150;2023-04-21T03:40:19;101421.11;;;17.01;41.00
49063;BME280;34876;51.464;-0.150;2023-04-21T03:42:48;101413.38;;;17.30;40.21
49063;BME280;34876;51.464;-0.150;2023-04-21T03:45:17;101423.37;;;16.65;41.50
49063;BME280;34876;51.464;-0.150;2023-04-21T03:47:47;101418.00;;;17.19;40.14
49063;BME280;34876;51.464;-0.150;2023-04-21T03:50:16;101415.73;;;17.36;39.73
49063;BME280;34876;51.464;-0.150;2023-04-21T03:52:45;101417.81;;;17.17;40.80
49063;BME280;34876;51.464;-0.150;2023-04-21T03:55:15;101418.53;;;16.44;41.74
49063;BME280;34876;51.464;-0.150;2023-04-21T03:57:45;101403.86;;;17.24;40.00
49063;BME280;34876;51.464;-0.150;2023-04-21T04:00:14;101398.99;;;17.52;39.39
49063;BME280;34876;51.464;-0.150;2023-04-21T04:02:43;101394.29;;;16.97;40.53
49063;BME280;34876;51.464;-0.150;2023-04-21T04:05:12;101385.49;;;17.36;39.73
49063;BME280;34876;51.464;-0.150;2023-04-21T04:07:41;101384.80;;;17.09;40.64
49063;BME280;34876;51.464;-0.150;2023-04-21T04:10:10;101381.65;;;17.26;39.91
49063;BME280;34876;51.464;-0.150;2023-04-21T04:12:39;101377.11;;;17.55;39.29
49063;BME280;34876;51.464;-0.150;2023-04-21T04:15:13;101373.56;;;17.56;39.24
49063;BME280;34876;51.464;-0.150;2023-04-21T04:17:42;101376.37;;;17.60;39.10
49063;BME280;34876;51.464;-0.150;2023-04-21T04:20:11;101378.97;;;17.45;39.45
49063;BME280;34876;51.464;-0.150;2023-04-21T04:22:41;101375.91;;;17.57;39.38
49063;BME280;34876;51.464;-0.150;2023-04-21T04:25:10;101374.98;;;17.16;40.13
49063;BME280;34876;51.464;-0.150;2023-04-21T04:27:39;101372.25;;;17.35;39.78
49063;BME280;34876;51.464;-0.150;2023-04-21T04:30:08;101370.01;;;16.60;41.67
49063;BME280;34876;51.464;-0.150;2023-04-21T04:32:37;101367.31;;;17.31;39.84
49063;BME280;34876;51.464;-0.150;2023-04-21T04:35:07;101363.00;;;17.02;40.82
49063;BME280;34876;51.464;-0.150;2023-04-21T04:37:36;101370.73;;;16.44;42.52
49063;BME280;34876;51.464;-0.150;2023-04-21T04:40:07;101356.57;;;17.12;40.28
49063;BME280;34876;51.464;-0.150;2023-04-21T04:42:36;101350.08;;;17.53;39.34
49063;BME280;34876;51.464;-0.150;2023-04-21T04:45:06;101346.14;;;17.59;39.19
49063;BME280;34876;51.464;-0.150;2023-04-21T04:47:36;101350.53;;;17.46;39.50
49063;BME280;34876;51.464;-0.150;2023-04-21T04:50:06;101345.48;;;17.41;39.56
49063;BME280;34876;51.464;-0.150;2023-04-21T04:52:35;101340.60;;;17.53;39.34
49063;BME280;34876;51.464;-0.150;2023-04-21T04:55:05;101337.77;;;17.53;39.32
49063;BME280;34876;51.464;-0.150;2023-04-21T04:57:35;101334.42;;;17.53;39.33
49063;BME280;34876;51.464;-0.150;2023-04-21T05:00:05;101333.45;;;17.52;39.33
49063;BME280;34876;51.464;-0.150;2023-04-21T05:02:35;101334.06;;;17.53;39.32
49063;BME280;34876;51.464;-0.150;2023-04-21T05:05:05;101335.11;;;17.67;38.98
49063;BME280;34876;51.464;-0.150;2023-04-21T05:07:35;101335.02;;;17.65;39.06
49063;BME280;34876;51.464;-0.150;2023-04-21T05:10:05;101332.52;;;17.70;38.96
49063;BME280;34876;51.464;-0.150;2023-04-21T05:12:40;101327.13;;;17.72;38.93
49063;BME280;34876;51.464;-0.150;2023-04-21T05:15:09;101326.88;;;17.72;38.89
49063;BME280;34876;51.464;-0.150;2023-04-21T05:17:38;101321.70;;;17.68;39.00
49063;BME280;34876;51.464;-0.150;2023-04-21T05:20:08;101316.04;;;17.51;39.35
49063;BME280;34876;51.464;-0.150;2023-04-21T05:22:38;101312.41;;;17.59;39.20
49063;BME280;34876;51.464;-0.150;2023-04-21T05:25:09;101309.60;;;17.67;39.05
49063;BME280;34876;51.464;-0.150;2023-04-21T05:27:39;101312.44;;;17.64;39.10
49063;BME280;34876;51.464;-0.150;2023-04-21T05:30:09;101315.70;;;17.60;39.18
49063;BME280;34876;51.464;-0.150;2023-04-21T05:32:37;101312.85;;;17.72;38.94
49063;BME280;34876;51.464;-0.150;2023-04-21T05:35:08;101307.50;;;17.60;39.17
49063;BME280;34876;51.464;-0.150;2023-04-21T05:37:37;101304.99;;;17.67;39.06
49063;BME280;34876;51.464;-0.150;2023-04-21T05:40:07;101300.67;;;17.39;39.70
49063;BME280;34876;51.464;-0.150;2023-04-21T05:42:37;101297.67;;;17.70;39.03
49063;BME280;34876;51.464;-0.150;2023-04-21T05:45:07;101297.93;;;17.70;39.02
49063;BME280;34876;51.464;-0.150;2023-04-21T05:47:36;101296.70;;;17.71;39.01
49063;BME280;34876;51.464;-0.150;2023-04-21T05:50:06;101292.22;;;17.75;38.91
49063;BME280;34876;51.464;-0.150;2023-04-21T05:52:36;101290.24;;;17.50;39.48
49063;BME280;34876;51.464;-0.150;2023-04-21T05:55:06;101289.94;;;17.59;39.35
49063;BME280;34876;51.464;-0.150;2023-04-21T05:57:35;101289.93;;;17.27;40.05
49063;BME280;34876;51.464;-0.150;2023-04-21T06:00:05;101287.08;;;17.68;39.16
49063;BME280;34876;51.464;-0.150;2023-04-21T06:02:36;101283.48;;;17.74;39.00
49063;BME280;34876;51.464;-0.150;2023-04-21T06:05:05;101281.70;;;17.46;39.66
49063;BME280;34876;51.464;-0.150;2023-04-21T06:07:34;101279.52;;;17.36;39.92
49063;BME280;34876;51.464;-0.150;2023-04-21T06:10:05;101279.63;;;17.46;39.68
49063;BME280;34876;51.464;-0.150;2023-04-21T06:12:34;101277.83;;;17.24;40.24
49063;BME280;34876;51.464;-0.150;2023-04-21T06:15:04;101277.43;;;17.14;40.46
49063;BME280;34876;51.464;-0.150;2023-04-21T06:17:33;101274.85;;;16.77;41.34
49063;BME280;34876;51.464;-0.150;2023-04-21T06:20:04;101274.73;;;17.53;39.62
49063;BME280;34876;51.464;-0.150;2023-04-21T06:22:33;101271.65;;;16.89;41.10
49063;BME280;34876;51.464;-0.150;2023-04-21T06:25:02;101264.38;;;16.68;41.57
49063;BME280;34876;51.464;-0.150;2023-04-21T06:27:31;101259.75;;;16.51;41.94
49063;BME280;34876;51.464;-0.150;2023-04-21T06:30:00;101255.41;;;17.08;40.64
49063;BME280;34876;51.464;-0.150;2023-04-21T06:32:31;101247.23;;;17.34;40.12
49063;BME280;34876;51.464;-0.150;2023-04-21T06:35:00;101244.74;;;16.91;41.04
49063;BME280;34876;51.464;-0.150;2023-04-21T06:37:31;101238.38;;;17.47;39.77
49063;BME280;34876;51.464;-0.150;2023-04-21T06:40:00;101235.29;;;16.58;41.76
49063;BME280;34876;51.464;-0.150;2023-04-21T06:42:29;101234.86;;;15.84;43.54
49063;BME280;34876;51.464;-0.150;2023-04-21T06:44:58;101233.88;;;16.35;42.46
49063;BME280;34876;51.464;-0.150;2023-04-21T06:47:36;101243.05;;;15.54;44.71
49063;BME280;34876;51.464;-0.150;2023-04-21T06:50:07;101237.31;;;16.45;42.15
49063;BME280;34876;51.464;-0.150;2023-04-21T06:52:36;101228.20;;;16.99;41.30
49063;BME280;34876;51.464;-0.150;2023-04-21T06:55:07;101228.12;;;16.82;41.39
49063;BME280;34876;51.464;-0.150;2023-04-21T06:57:36;101222.74;;;16.20;42.69
49063;BME280;34876;51.464;-0.150;2023-04-21T07:00:06;101223.88;;;16.66;41.95
49063;BME280;34876;51.464;-0.150;2023-04-21T07:02:36;101221.27;;;16.99;40.86
49063;BME280;34876;51.464;-0.150;2023-04-21T07:05:07;101220.55;;;16.99;40.96
49063;BME280;34876;51.464;-0.150;2023-04-21T07:07:36;101214.97;;;15.97;43.05
49063;BME280;34876;51.464;-0.150;2023-04-21T07:10:06;101209.41;;;16.41;42.26
49063;BME280;34876;51.464;-0.150;2023-04-21T07:12:35;101203.34;;;16.65;41.66
49063;BME280;34876;51.464;-0.150;2023-04-21T07:15:07;101201.07;;;16.84;41.19
49063;BME280;34876;51.464;-0.150;2023-04-21T07:17:36;101197.36;;;17.49;39.72
49063;BME280;34876;51.464;-0.150;2023-04-21T07:20:06;101201.71;;;16.64;41.85
49063;BME280;34876;51.464;-0.150;2023-04-21T07:22:36;101198.20;;;16.80;41.23
49063;BME280;34876;51.464;-0.150;2023-04-21T07:25:07;101199.53;;;16.94;41.03
49063;BME280;34876;51.464;-0.150;2023-04-21T07:27:37;101202.54;;;16.40;41.95
49063;BME280;34876;51.464;-0.150;2023-04-21T07:30:07;101200.85;;;16.95;40.90
49063;BME280;34876;51.464;-0.150;2023-04-21T07:32:36;101200.39;;;16.84;41.13
49063;BME280;34876;51.464;-0.150;2023-04-21T07:35:06;101201.46;;;17.00;40.78
49063;BME280;34876;51.464;-0.150;2023-04-21T07:37:36;101197.94;;;17.01;40.72
49063;BME280;34876;51.464;-0.150;2023-04-21T07:40:06;101197.16;;;16.36;42.00
49063;BME280;34876;51.464;-0.150;2023-04-21T07:42:36;101191.54;;;16.64;41.10
49063;BME280;34876;51.464;-0.150;2023-04-21T07:45:07;101185.78;;;16.88;41.00
49063;BME280;34876;51.464;-0.150;2023-04-21T07:47:36;101179.17;;;17.38;39.85
49063;BME280;34876;51.464;-0.150;2023-04-21T07:50:07;101172.25;;;17.52;39.54
49063;BME280;34876;51.464;-0.150;2023-04-21T07:52:36;101169.64;;;17.64;39.22
49063;BME280;34876;51.464;-0.150;2023-04-21T07:55:06;101169.36;;;17.54;39.41
49063;BME280;34876;51.464;-0.150;2023-04-21T07:57:36;101163.18;;;17.67;39.13
49063;BME280;34876;51.464;-0.150;2023-04-21T08:00:06;101162.39;;;17.67;39.11
49063;BME280;34876;51.464;-0.150;2023-04-21T08:02:36;101156.22;;;17.73;38.95
49063;BME280;34876;51.464;-0.150;2023-04-21T08:05:05;101156.11;;;17.46;39.43
49063;BME280;34876;51.464;-0.150;2023-04-21T08:07:35;101153.68;;;17.69;38.98
49063;BME280;34876;51.464;-0.150;2023-04-21T08:10:06;101150.72;;;17.72;38.94
49063;BME280;34876;51.464;-0.150;2023-04-21T08:12:35;101147.97;;;17.74;38.91
49063;BME280;34876;51.464;-0.150;2023-04-21T08:15:06;101148.55;;;17.75;38.82
49063;BME280;34876;51.464;-0.150;2023-04-21T08:17:37;101152.59;;;17.73;38.82
49063;BME280;34876;51.464;-0.150;2023-04-21T08:20:07;101157.96;;;17.74;38.77
49063;BME280;34876;51.464;-0.150;2023-04-21T08:22:36;101158.88;;;17.76;38.75
49063;BME280;34876;51.464;-0.150;2023-04-21T08:25:06;101161.26;;;17.73;38.81
49063;BME280;34876;51.464;-0.150;2023-04-21T08:27:39;101157.73;;;17.78;38.72
49063;BME280;34876;51.464;-0.150;2023-04-21T08:30:10;101159.48;;;17.46;39.36
49063;BME280;34876;51.464;-0.150;2023-04-21T08:32:41;101161.19;;;16.98;40.31
49063;BME280;34876;51.464;-0.150;2023-04-21T08:35:11;101152.27;;;17.61;39.08
49063;BME280;34876;51.464;-0.150;2023-04-21T08:37:41;101149.93;;;17.73;38.77
49063;BME280;34876;51.464;-0.150;2023-04-21T08:40:17;101146.70;;;17.73;38.75
49063;BME280;34876;51.464;-0.150;2023-04-21T08:42:47;101148.44;;;17.24;39.74
49063;BME280;34876;51.464;-0.150;2023-04-21T08:45:16;101145.22;;;17.51;39.29
49063;BME280;34876;51.464;-0.150;2023-04-21T08:47:46;101142.05;;;17.66;38.93
49063;BME280;34876;51.464;-0.150;2023-04-21T08:50:17;101144.19;;;17.42;39.48
49063;BME280;34876;51.464;-0.150;2023-04-21T08:52:47;101146.89;;;17.44;39.38
49063;BME280;34876;51.464;-0.150;2023-04-21T08:55:18;101146.53;;;17.49;39.26
49063;BME280;34876;51.464;-0.150;2023-04-21T08:57:48;101143.56;;;17.68;38.87
49063;BME280;34876;51.464;-0.150;2023-04-21T09:00:17;101142.86;;;17.55;39.11
49063;BME280;34876;51.464;-0.150;2023-04-21T09:02:55;101145.23;;;17.32;39.56
49063;BME280;34876;51.464;-0.150;2023-04-21T09:05:26;101147.38;;;17.61;39.07
49063;BME280;34876;51.464;-0.150;2023-04-21T09:08:08;101144.53;;;17.59;39.10
49063;BME280;34876;51.464;-0.150;2023-04-21T09:10:45;101141.88;;;17.64;39.03
49063;BME280;34876;51.464;-0.150;2023-04-21T09:13:17;101144.09;;;17.56;39.20
49063;BME280;34876;51.464;-0.150;2023-04-21T09:15:48;101142.54;;;17.69;38.89
49063;BME280;34876;51.464;-0.150;2023-04-21T09:18:21;101149.13;;;17.18;40.13
49063;BME280;34876;51.464;-0.150;2023-04-21T09:21:03;101150.16;;;17.32;39.81
49063;BME280;34876;51.464;-0.150;2023-04-21T09:23:39;101148.17;;;17.65;39.07
49063;BME280;34876;51.464;-0.150;2023-04-21T09:26:10;101145.17;;;17.70;38.94
49063;BME280;34876;51.464;-0.150;2023-04-21T09:28:41;101146.24;;;17.71;39.01
49063;BME280;34876;51.464;-0.150;2023-04-21T09:31:13;101145.09;;;17.71;38.98
49063;BME280;34876;51.464;-0.150;2023-04-21T09:33:46;101145.01;;;17.52;39.49
49063;BME280;34876;51.464;-0.150;2023-04-21T09:36:18;101142.99;;;17.69;39.10
49063;BME280;34876;51.464;-0.150;2023-04-21T09:38:49;101149.65;;;17.36;43.08
49063;BME280;34876;51.464;-0.150;2023-04-21T09:41:19;101147.97;;;16.53;42.95
49063;BME280;34876;51.464;-0.150;2023-04-21T09:43:49;101145.51;;;17.41;40.14
49063;BME280;34876;51.464;-0.150;2023-04-21T09:46:19;101144.20;;;17.12;40.55
49063;BME280;34876;51.464;-0.150;2023-04-21T09:48:49;101141.78;;;17.56;39.53
49063;BME280;34876;51.464;-0.150;2023-04-21T09:51:21;101149.08;;;16.87;41.14
49063;BME280;34876;51.464;-0.150;2023-04-21T09:53:57;101142.88;;;17.52;39.72
49063;BME280;34876;51.464;-0.150;2023-04-21T09:56:28;101141.18;;;17.56;39.62
49063;BME280;34876;51.464;-0.150;2023-04-21T09:59:00;101138.97;;;17.63;39.50
49063;BME280;34876;51.464;-0.150;2023-04-21T10:01:33;101143.24;;;17.62;39.50
49063;BME280;34876;51.464;-0.150;2023-04-21T10:04:03;101137.92;;;17.70;39.34
49063;BME280;34876;51.464;-0.150;2023-04-21T10:06:33;101138.04;;;17.59;39.63
49063;BME280;34876;51.464;-0.150;2023-04-21T10:09:03;101137.77;;;17.21;40.56
49063;BME280;34876;51.464;-0.150;2023-04-21T10:11:34;101140.86;;;17.57;39.73
49063;BME280;34876;51.464;-0.150;2023-04-21T10:14:05;101134.25;;;17.67;39.50
49063;BME280;34876;51.464;-0.150;2023-04-21T10:16:35;101138.77;;;17.56;39.81
49063;BME280;34876;51.464;-0.150;2023-04-21T10:19:22;101150.69;;;17.27;40.81
49063;BME280;34876;51.464;-0.150;2023-04-21T10:21:54;101148.97;;;16.87;41.77
49063;BME280;34876;51.464;-0.150;2023-04-21T10:24:27;101139.39;;;17.50;40.08
49063;BME280;34876;51.464;-0.150;2023-04-21T10:26:57;101141.14;;;17.61;39.78
49063;BME280;34876;51.464;-0.150;2023-04-21T10:29:28;101138.61;;;17.51;40.02
49063;BME280;34876;51.464;-0.150;2023-04-21T10:31:58;101136.99;;;17.63;39.73
49063;BME280;34876;51.464;-0.150;2023-04-21T10:34:33;101132.21;;;17.66;39.67
49063;BME280;34876;51.464;-0.150;2023-04-21T10:37:12;101127.98;;;17.66;39.66
49063;BME280;34876;51.464;-0.150;2023-04-21T10:39:51;101126.27;;;17.71;39.53
49063;BME280;34876;51.464;-0.150;2023-04-21T10:42:24;101125.97;;;17.76;39.45
49063;BME280;34876;51.464;-0.150;2023-04-21T10:45:01;101126.89;;;17.82;39.31
49063;BME280;34876;51.464;-0.150;2023-04-21T10:47:36;101126.64;;;17.84;39.30
49063;BME280;34876;51.464;-0.150;2023-04-21T10:50:11;101128.65;;;17.86;39.25
49063;BME280;34876;51.464;-0.150;2023-04-21T10:52:45;101129.67;;;17.89;39.18
49063;BME280;34876;51.464;-0.150;2023-04-21T10:55:15;101129.36;;;17.89;39.18
49063;BME280;34876;51.464;-0.150;2023-04-21T10:57:45;101130.50;;;17.83;39.33
49063;BME280;34876;51.464;-0.150;2023-04-21T11:00:17;101125.53;;;17.80;39.38
49063;BME280;34876;51.464;-0.150;2023-04-21T11:02:56;101134.23;;;17.04;42.67
49063;BME280;34876;51.464;-0.150;2023-04-21T11:05:28;101126.50;;;17.20;40.83
49063;BME280;34876;51.464;-0.150;2023-04-21T11:08:13;101126.07;;;17.66;39.80
49063;BME280;34876;51.464;-0.150;2023-04-21T11:10:48;101129.38;;;16.03;43.99
49063;BME280;34876;51.464;-0.150;2023-04-21T11:13:20;101122.81;;;17.35;40.62
49063;BME280;34876;51.464;-0.150;2023-04-21T11:16:06;101120.36;;;17.33;40.72
49063;BME280;34876;51.464;-0.150;2023-04-21T11:18:39;101118.76;;;17.15;41.67
49063;BME280;34876;51.464;-0.150;2023-04-21T11:21:10;101114.44;;;17.59;39.99
49063;BME280;34876;51.464;-0.150;2023-04-21T11:23:47;101116.95;;;17.07;42.71
49063;BME280;34876;51.464;-0.150;2023-04-21T11:26:16;101117.46;;;16.97;41.50
49063;BME280;34876;51.464;-0.150;2023-04-21T11:28:47;101114.33;;;17.40;40.44
49063;BME280;34876;51.464;-0.150;2023-04-21T11:31:16;101114.93;;;16.75;42.02
49063;BME280;34876;51.464;-0.150;2023-04-21T11:33:46;101109.71;;;17.55;40.10
49063;BME280;34876;51.464;-0.150;2023-04-21T11:36:15;101109.99;;;17.75;39.63
49063;BME280;34876;51.464;-0.150;2023-04-21T11:38:44;101108.59;;;17.70;39.72
49063;BME280;34876;51.464;-0.150;2023-04-21T11:41:19;101111.38;;;17.61;41.55
49063;BME280;34876;51.464;-0.150;2023-04-21T11:43:49;101105.52;;;17.00;41.75
49063;BME280;34876;51.464;-0.150;2023-04-21T11:46:22;101106.72;;;16.23;43.19
49063;BME280;34876;51.464;-0.150;2023-04-21T11:49:01;101105.52;;;16.70;42.10
49063;BME280;34876;51.464;-0.150;2023-04-21T11:51:32;101107.01;;;16.21;43.30
49063;BME280;34876;51.464;-0.150;2023-04-21T11:54:04;101108.73;;;16.61;42.56
49063;BME280;34876;51.464;-0.150;2023-04-21T11:56:35;101106.07;;;16.28;43.20
49063;BME280;34876;51.464;-0.150;2023-04-21T11:59:10;101101.91;;;17.20;40.94
49063;BME280;34876;51.464;-0.150;2023-04-21T12:01:43;101106.16;;;16.76;41.77
49063;BME280;34876;51.464;-0.150;2023-04-21T12:04:13;101104.94;;;16.88;41.54
49063;BME280;34876;51.464;-0.150;2023-04-21T12:06:43;101110.65;;;16.54;42.48
49063;BME280;34876;51.464;-0.150;2023-04-21T12:09:17;101110.95;;;16.22;43.10
49063;BME280;34876;51.464;-0.150;2023-04-21T12:11:49;101110.71;;;16.43;42.65
49063;BME280;34876;51.464;-0.150;2023-04-21T12:14:20;101114.41;;;16.05;43.50
49063;BME280;34876;51.464;-0.150;2023-04-21T12:16:53;101108.16;;;17.00;41.33
49063;BME280;34876;51.464;-0.150;2023-04-21T12:19:23;101114.21;;;16.39;42.97
49063;BME280;34876;51.464;-0.150;2023-04-21T12:21:53;101110.76;;;17.23;40.68
49063;BME280;34876;51.464;-0.150;2023-04-21T12:24:22;101108.51;;;17.31;40.49
49063;BME280;34876;51.464;-0.150;2023-04-21T12:26:51;101108.11;;;17.58;39.82
49063;BME280;34876;51.464;-0.150;2023-04-21T12:29:20;101106.74;;;17.69;39.59
49063;BME280;34876;51.464;-0.150;2023-04-21T12:31:49;101109.58;;;17.51;39.96
49063;BME280;34876;51.464;-0.150;2023-04-21T12:34:18;101110.50;;;17.41;40.23
49063;BME280;34876;51.464;-0.150;2023-04-21T12:36:48;101110.96;;;17.00;41.56
49063;BME280;34876;51.464;-0.150;2023-04-21T12:39:17;101113.36;;;16.28;43.01
49063;BME280;34876;51.464;-0.150;2023-04-21T12:41:46;101112.69;;;16.19;43.21
49063;BME280;34876;51.464;-0.150;2023-04-21T12:44:16;101106.10;;;17.23;40.73
49063;BME280;34876;51.464;-0.150;2023-04-21T12:46:45;101116.85;;;16.41;43.88
49063;BME280;34876;51.464;-0.150;2023-04-21T12:49:15;101107.81;;;16.68;42.18
49063;BME280;34876;51.464;-0.150;2023-04-21T12:51:44;101101.25;;;17.12;41.04
49063;BME280;34876;51.464;-0.150;2023-04-21T12:54:13;101109.29;;;16.59;42.34
49063;BME280;34876;51.464;-0.150;2023-04-21T12:56:43;101101.50;;;17.32;40.64